Time;durP1;ratioP1;P1;durP2;ratioP2;P2;SDS_P1;SDS_P2;PMS_P1;PMS_P2;Temp;Humidity;BMP_temperature;BMP_pressure;BME280_temperature;BME280_humidity;BME280_pressure;Samples;Min_cycle;Max_cycle;Signal;HPM_P1;HPM_P2
2022/06/19 00:00:39;;;;;;;;;;;;;;;28.55;45.49;98828.88;2044426;28;20391;-73
2022/06/19 00:01:40;;;;;;;;;;;;;;;28.54;45.25;98827.25;2049881;28;19934;-74
2022/06/19 00:02:43;;;;;;;;;;;;;;;28.55;45.68;98836.25;2043988;28;19972;-74
2022/06/19 00:03:46;;;;;;;;;;;;;;;28.54;45.56;98824.53;2047840;28;20462;-74
2022/06/19 00:04:49;;;;;;;;;;;;;;;28.55;45.32;98828.88;2043741;28;19936;-74
2022/06/19 00:05:51;;;;;;;;;;;;;;;28.55;45.13;98831.63;2045612;28;19933;-73
2022/06/19 00:06:56;;;;;;;;;;;;;;;28.54;45.20;98832.72;2042365;28;20049;-73
2022/06/19 00:07:57;;;;;;;;;;;;;;;28.55;45.45;98828.06;2042242;28;19926;-74
2022/06/19 00:08:58;;;;;;;;;;;;;;;28.57;45.64;98825.91;2045590;28;20333;-74
2022/06/19 00:09:59;;;;;;;;;;;;;;;28.56;45.49;98827.81;2043193;28;20077;-73
2022/06/19 00:11:01;;;;;;;;;;;;;;;28.56;45.37;98827.00;2045751;28;20113;-74
2022/06/19 00:12:02;;;;;;;;;;;;;;;28.59;45.50;98829.22;2047457;28;24010;-74
2022/06/19 00:13:04;;;;;;;;;;;;;;;28.57;45.44;98832.19;2044162;28;19934;-73
2022/06/19 00:14:04;;;;;;;;;;;;;;;28.56;45.62;98827.81;2046479;28;20672;-73
2022/06/19 00:15:06;;;;;;;;;;;;;;;28.55;45.57;98828.88;2039188;28;19940;-74
2022/06/19 00:16:08;;;;;;;;;;;;;;;28.54;45.71;98819.06;2047694;28;19953;-74
2022/06/19 00:17:09;;;;;;;;;;;;;;;28.55;45.93;98817.97;2042402;28;19941;-74
2022/06/19 00:18:10;;;;;;;;;;;;;;;28.56;45.93;98821.56;2048620;28;20018;-74
2022/06/19 00:19:12;;;;;;;;;;;;;;;28.54;45.71;98815.53;2045045;28;19937;-73
2022/06/19 00:20:13;;;;;;;;;;;;;;;28.52;45.81;98821.25;2044202;28;19929;-74
2022/06/19 00:21:17;;;;;;;;;;;;;;;28.55;45.73;98808.97;2046523;28;19941;-74
2022/06/19 00:22:17;;;;;;;;;;;;;;;28.54;45.90;98813.63;2047538;28;20348;-74
2022/06/19 00:23:19;;;;;;;;;;;;;;;28.54;45.65;98813.63;2049464;28;19926;-74
2022/06/19 00:24:19;;;;;;;;;;;;;;;28.54;45.65;98813.63;2047859;28;19930;-74
2022/06/19 00:25:21;;;;;;;;;;;;;;;28.52;46.06;98808.41;2046966;28;20404;-74
2022/06/19 00:26:22;;;;;;;;;;;;;;;28.53;45.87;98806.53;2048680;28;19974;-74
2022/06/19 00:27:24;;;;;;;;;;;;;;;28.51;45.84;98805.97;2049794;28;19940;-74
2022/06/19 00:28:25;;;;;;;;;;;;;;;28.52;45.61;98811.13;2049786;28;20509;-74
2022/06/19 00:29:28;;;;;;;;;;;;;;;28.52;45.96;98804.88;2043985;28;20172;-74
2022/06/19 00:30:28;;;;;;;;;;;;;;;28.52;45.96;98799.41;2039323;28;19933;-74
2022/06/19 00:31:30;;;;;;;;;;;;;;;28.52;45.97;98802.13;2045361;28;20260;-74
2022/06/19 00:32:30;;;;;;;;;;;;;;;28.54;45.68;98799.97;2046253;28;19937;-74
2022/06/19 00:33:32;;;;;;;;;;;;;;;28.52;45.69;98797.50;2048913;28;20024;-74
2022/06/19 00:34:34;;;;;;;;;;;;;;;28.53;45.91;98803.81;2048212;28;20421;-74
2022/06/19 00:35:36;;;;;;;;;;;;;;;28.52;45.76;98802.13;2046985;28;20513;-74
2022/06/19 00:36:38;;;;;;;;;;;;;;;28.52;45.81;98796.69;2048965;28;19930;-74
2022/06/19 00:37:39;;;;;;;;;;;;;;;28.52;45.98;98802.13;2045834;28;19972;-74
2022/06/19 00:38:40;;;;;;;;;;;;;;;28.52;45.97;98792.03;2045504;28;20115;-74
2022/06/19 00:39:42;;;;;;;;;;;;;;;28.52;45.81;98802.13;2040539;28;20164;-74
2022/06/19 00:40:43;;;;;;;;;;;;;;;28.53;45.91;98795.63;2048454;28;19934;-73
2022/06/19 00:41:45;;;;;;;;;;;;;;;28.52;45.98;98800.22;2046466;28;20397;-74
2022/06/19 00:42:46;;;;;;;;;;;;;;;28.52;45.86;98793.94;2044929;28;19998;-74
2022/06/19 00:43:54;;;;;;;;;;;;;;;28.53;46.02;98795.63;2047773;28;19942;-73
2022/06/19 00:44:54;;;;;;;;;;;;;;;28.52;46.18;98794.78;2047512;28;19934;-74
2022/06/19 00:45:59;;;;;;;;;;;;;;;28.51;46.14;98797.78;2049432;28;20387;-74
2022/06/19 00:47:02;;;;;;;;;;;;;;;28.51;46.17;98793.13;2046954;28;20024;-74
2022/06/19 00:48:10;;;;;;;;;;;;;;;28.51;46.16;98795.88;2045993;28;19944;-74
2022/06/19 00:49:11;;;;;;;;;;;;;;;28.52;46.12;98802.13;2043869;28;19934;-74
2022/06/19 00:50:22;;;;;;;;;;;;;;;28.52;46.34;98794.78;2045720;28;19934;-74
2022/06/19 00:51:22;;;;;;;;;;;;;;;28.51;46.11;98795.06;2045961;28;19937;-74
2022/06/19 00:52:27;;;;;;;;;;;;;;;28.52;46.16;98789.31;2039638;28;20303;-74
2022/06/19 00:53:29;;;;;;;;;;;;;;;28.52;45.37;98793.94;2047427;28;19934;-74
2022/06/19 00:54:33;;;;;;;;;;;;;;;28.53;44.90;98795.63;2040926;28;19965;-74
2022/06/19 00:55:38;;;;;;;;;;;;;;;28.56;45.33;98795.09;2046573;28;20102;-74
2022/06/19 00:56:39;;;;;;;;;;;;;;;28.56;45.21;98797.00;2045399;28;21359;-74
2022/06/19 00:57:42;;;;;;;;;;;;;;;28.55;45.04;98792.59;2047547;28;19933;-74
2022/06/19 00:58:45;;;;;;;;;;;;;;;28.55;45.49;98793.41;2045699;28;20049;-73
2022/06/19 00:59:47;;;;;;;;;;;;;;;28.52;45.75;98794.78;2043717;28;19929;-74
2022/06/19 01:00:51;;;;;;;;;;;;;;;28.51;45.26;98803.22;2048282;28;19926;-74
2022/06/19 01:01:52;;;;;;;;;;;;;;;28.52;45.50;98800.22;2049524;28;20276;-74
2022/06/19 01:02:54;;;;;;;;;;;;;;;28.52;45.22;98793.94;2047433;28;20021;-74
2022/06/19 01:03:59;;;;;;;;;;;;;;;28.54;45.23;98796.44;2040897;28;19926;-74
2022/06/19 01:05:01;;;;;;;;;;;;;;;28.55;45.07;98798.88;2043917;28;19937;-74
2022/06/19 01:06:03;;;;;;;;;;;;;;;28.54;45.23;98799.16;2044964;28;20390;-74
2022/06/19 01:07:05;;;;;;;;;;;;;;;28.54;45.28;98799.16;2047030;28;19998;-74
2022/06/19 01:08:07;;;;;;;;;;;;;;;28.55;45.46;98795.34;2045160;28;19997;-74
2022/06/19 01:09:09;;;;;;;;;;;;;;;28.51;45.59;98790.41;2040693;28;19941;-74
2022/06/19 01:10:12;;;;;;;;;;;;;;;28.51;45.39;98787.69;2040500;28;19956;-74
2022/06/19 01:11:14;;;;;;;;;;;;;;;28.52;45.58;98788.50;2044631;28;20021;-74
2022/06/19 01:12:15;;;;;;;;;;;;;;;28.51;45.36;98786.88;2044280;28;19930;-74
2022/06/19 01:13:18;;;;;;;;;;;;;;;28.51;45.73;98789.59;2039250;28;19980;-73
2022/06/19 01:14:20;;;;;;;;;;;;;;;28.51;46.11;98786.88;2044616;28;19934;-74
2022/06/19 01:15:24;;;;;;;;;;;;;;;28.50;46.18;98788.78;2043383;28;19934;-74
2022/06/19 01:16:25;;;;;;;;;;;;;;;28.50;46.15;98796.13;2043213;28;20298;-73
2022/06/19 01:17:26;;;;;;;;;;;;;;;28.50;46.20;98787.94;2041359;28;19940;-74
2022/06/19 01:18:28;;;;;;;;;;;;;;;28.50;46.44;98787.94;2038344;28;20126;-74
2022/06/19 01:19:31;;;;;;;;;;;;;;;28.51;46.29;98787.69;2047257;28;20614;-73
2022/06/19 01:20:33;;;;;;;;;;;;;;;28.51;45.88;98787.69;2043113;28;19979;-74
2022/06/19 01:21:38;;;;;;;;;;;;;;;28.50;45.24;98790.66;2040297;28;19945;-74
2022/06/19 01:22:43;;;;;;;;;;;;;;;28.50;44.67;98786.06;2045172;28;19930;-73
2022/06/19 01:23:52;;;;;;;;;;;;;;;28.51;44.26;98789.59;2044886;28;20992;-73
2022/06/19 01:25:04;;;;;;;;;;;;;;;28.51;43.98;98786.88;2042325;28;19929;-74
2022/06/19 01:26:06;;;;;;;;;;;;;;;28.50;43.48;98786.06;2043403;28;20029;-74
2022/06/19 01:27:08;;;;;;;;;;;;;;;28.50;43.38;98786.06;2045113;28;20287;-73
2022/06/19 01:29:32;;;;;;;;;;;;;;;28.50;42.39;98785.19;2046830;28;19959;-75
2022/06/19 01:30:35;;;;;;;;;;;;;;;28.49;42.25;98783.56;2047913;28;19934;-74
2022/06/19 01:31:41;;;;;;;;;;;;;;;28.48;41.84;98777.31;2040749;28;19933;-74
2022/06/19 01:32:43;;;;;;;;;;;;;;;28.48;42.23;98787.41;2038448;28;19980;-74
2022/06/19 01:33:46;;;;;;;;;;;;;;;28.48;41.85;98784.66;2043102;28;19945;-73
2022/06/19 01:34:48;;;;;;;;;;;;;;;28.48;42.00;98785.50;2040977;28;19957;-73
2022/06/19 01:35:51;;;;;;;;;;;;;;;28.46;41.64;98778.66;2046540;28;19930;-74
2022/06/19 01:36:54;;;;;;;;;;;;;;;28.46;42.16;98776.72;2044874;28;20377;-73
2022/06/19 01:37:55;;;;;;;;;;;;;;;28.47;40.74;98778.41;2045705;28;19930;-74
2022/06/19 01:38:58;;;;;;;;;;;;;;;28.46;41.45;98773.19;2048382;28;19963;-73
2022/06/19 01:40:00;;;;;;;;;;;;;;;28.48;41.42;98776.47;2047195;28;19948;-73
2022/06/19 01:41:06;;;;;;;;;;;;;;;28.46;43.64;98773.19;2044951;28;19941;-73
2022/06/19 01:42:08;;;;;;;;;;;;;;;28.45;41.90;98774.28;2040122;28;20328;-74
2022/06/19 01:43:09;;;;;;;;;;;;;;;28.44;41.86;98773.44;2042763;28;20660;-74
2022/06/19 01:44:10;;;;;;;;;;;;;;;28.43;42.59;98768.28;2046795;28;19934;-73
2022/06/19 01:45:12;;;;;;;;;;;;;;;28.44;41.40;98769.91;2041996;28;19964;-74
2022/06/19 01:46:13;;;;;;;;;;;;;;;28.43;41.64;98779.19;2044068;28;20338;-74
2022/06/19 01:47:15;;;;;;;;;;;;;;;28.43;41.87;98765.53;2041639;28;19983;-75
2022/06/19 01:48:16;;;;;;;;;;;;;;;28.43;43.81;98779.19;2045506;28;20112;-73
2022/06/19 01:49:18;;;;;;;;;;;;;;;28.43;42.80;98771.00;2044611;28;19961;-74
2022/06/19 01:50:21;;;;;;;;;;;;;;;28.42;42.09;98764.72;2045055;28;20092;-74
2022/06/19 01:51:22;;;;;;;;;;;;;;;28.43;43.67;98762.81;2051089;28;19926;-75
2022/06/19 01:52:25;;;;;;;;;;;;;;;28.42;42.08;98764.72;2046595;28;20330;-74
2022/06/19 01:53:30;;;;;;;;;;;;;;;28.43;42.06;98765.53;2043376;28;20190;-74
2022/06/19 01:54:33;;;;;;;;;;;;;;;28.43;41.92;98762.81;2044826;28;20321;-74
2022/06/19 01:55:35;;;;;;;;;;;;;;;28.43;41.52;98757.34;2047210;28;20335;-73
2022/06/19 01:56:37;;;;;;;;;;;;;;;28.44;42.30;98759.00;2044192;28;19937;-74
2022/06/19 01:57:40;;;;;;;;;;;;;;;28.43;42.29;98757.34;2044310;28;19926;-75
2022/06/19 01:58:44;;;;;;;;;;;;;;;28.43;43.59;98763.63;2044312;28;21186;-74
2022/06/19 01:59:45;;;;;;;;;;;;;;;28.42;42.81;98763.88;2047455;28;19952;-74
2022/06/19 02:00:48;;;;;;;;;;;;;;;28.42;44.10;98752.97;2041729;28;20080;-74
2022/06/19 02:01:51;;;;;;;;;;;;;;;28.43;43.55;98768.28;2045104;28;19994;-74
2022/06/19 02:02:55;;;;;;;;;;;;;;;28.41;44.14;98763.03;2047705;28;20494;-74
2022/06/19 02:03:57;;;;;;;;;;;;;;;28.41;43.86;98764.94;2044601;28;19934;-74
2022/06/19 02:04:58;;;;;;;;;;;;;;;28.41;44.09;98773.94;2039207;28;19936;-75
2022/06/19 02:05:59;;;;;;;;;;;;;;;28.40;44.00;98768.78;2045674;28;19999;-74
2022/06/19 02:07:03;;;;;;;;;;;;;;;28.40;43.92;98757.84;2045410;28;19969;-74
2022/06/19 02:08:04;;;;;;;;;;;;;;;28.39;42.97;98762.50;2043182;28;19930;-74
2022/06/19 02:09:06;;;;;;;;;;;;;;;28.42;41.14;98761.16;2047130;28;20362;-74
2022/06/19 02:10:07;;;;;;;;;;;;;;;28.42;41.02;98752.97;2046172;28;19940;-74
2022/06/19 02:11:12;;;;;;;;;;;;;;;28.41;40.57;98756.75;2045839;28;20494;-74
2022/06/19 02:12:14;;;;;;;;;;;;;;;28.40;41.66;98757.84;2044358;28;20463;-74
2022/06/19 02:13:17;;;;;;;;;;;;;;;28.40;41.48;98753.22;2048323;28;19930;-74
2022/06/19 02:14:18;;;;;;;;;;;;;;;28.39;42.14;98751.59;2043979;28;20369;-74
2022/06/19 02:15:20;;;;;;;;;;;;;;;28.38;42.23;98755.38;2047910;28;20421;-75
2022/06/19 02:16:21;;;;;;;;;;;;;;;28.37;41.01;98751.03;2045077;28;20469;-74
2022/06/19 02:17:26;;;;;;;;;;;;;;;28.37;41.41;98747.47;2044699;28;19984;-75
2022/06/19 02:18:29;;;;;;;;;;;;;;;28.36;42.95;98751.28;2047769;28;20490;-74
2022/06/19 02:19:31;;;;;;;;;;;;;;;28.36;42.95;98749.41;2044660;28;20000;-74
2022/06/19 02:20:34;;;;;;;;;;;;;;;28.37;43.30;98752.94;2041391;28;19979;-74
2022/06/19 02:21:36;;;;;;;;;;;;;;;28.36;42.91;98748.53;2045952;28;19939;-74
2022/06/19 02:22:37;;;;;;;;;;;;;;;28.37;42.94;98742.03;2051471;28;20391;-74
2022/06/19 02:23:39;;;;;;;;;;;;;;;28.37;43.97;98747.47;2041508;28;19936;-74
2022/06/19 02:24:40;;;;;;;;;;;;;;;28.37;41.95;98747.47;2047493;28;20017;-75
2022/06/19 02:25:44;;;;;;;;;;;;;;;28.38;43.19;98749.09;2043824;28;19926;-74
2022/06/19 02:26:45;;;;;;;;;;;;;;;28.38;43.68;98747.19;2043651;28;19986;-74
2022/06/19 02:27:49;;;;;;;;;;;;;;;28.37;43.59;98739.28;2044967;28;20271;-74
2022/06/19 02:28:50;;;;;;;;;;;;;;;28.38;43.37;98749.09;2044452;28;20159;-74
2022/06/19 02:29:52;;;;;;;;;;;;;;;28.37;44.10;98742.84;2044079;28;20310;-74
2022/06/19 02:30:53;;;;;;;;;;;;;;;28.37;44.32;98751.03;2040991;28;19930;-74
2022/06/19 02:31:57;;;;;;;;;;;;;;;28.37;44.18;98736.56;2042883;28;19957;-74
2022/06/19 02:32:58;;;;;;;;;;;;;;;28.39;44.37;98739.84;2042564;28;19936;-74
2022/06/19 02:34:01;;;;;;;;;;;;;;;28.37;44.10;98734.66;2047834;28;20401;-74
2022/06/19 02:35:01;;;;;;;;;;;;;;;28.37;44.63;98737.38;2047799;28;19982;-74
2022/06/19 02:36:22;;;;;;;;;;;;;;;28.37;44.41;98739.28;2046040;28;20034;-74
2022/06/19 02:37:23;;;;;;;;;;;;;;;28.37;44.24;98736.56;2045201;28;19944;-75
2022/06/19 02:38:25;;;;;;;;;;;;;;;28.37;43.84;98736.56;2043625;28;19930;-74
2022/06/19 02:39:40;;;;;;;;;;;;;;;28.39;43.87;98737.09;2044978;28;19934;-74
2022/06/19 02:40:49;;;;;;;;;;;;;;;28.39;43.38;98735.22;2042957;28;20154;-74
2022/06/19 02:41:54;;;;;;;;;;;;;;;28.39;44.26;98731.66;2048920;28;19987;-74
2022/06/19 02:42:57;;;;;;;;;;;;;;;28.40;44.23;98733.31;2045282;28;19927;-74
2022/06/19 02:43:59;;;;;;;;;;;;;;;28.38;44.98;98733.56;2046956;28;19925;-74
2022/06/19 02:45:02;;;;;;;;;;;;;;;28.38;44.81;98732.75;2047671;28;20463;-74
2022/06/19 02:46:06;;;;;;;;;;;;;;;28.36;44.86;98735.75;2046528;28;20307;-74
2022/06/19 02:47:08;;;;;;;;;;;;;;;28.36;44.85;98733.03;2047329;28;19926;-74
2022/06/19 02:48:14;;;;;;;;;;;;;;;28.37;44.54;98736.56;2047179;28;19941;-74
2022/06/19 02:49:16;;;;;;;;;;;;;;;28.37;44.33;98739.28;2041179;28;20199;-74
2022/06/19 02:50:19;;;;;;;;;;;;;;;28.37;44.30;98731.13;2044497;28;20360;-74
2022/06/19 02:51:20;;;;;;;;;;;;;;;28.35;44.90;98731.38;2044167;28;19934;-75
2022/06/19 02:52:21;;;;;;;;;;;;;;;28.36;44.54;98733.03;2043525;28;20376;-74
2022/06/19 02:53:23;;;;;;;;;;;;;;;28.36;44.27;98724.00;2047523;28;20268;-74
2022/06/19 02:54:23;;;;;;;;;;;;;;;28.36;44.77;98724.00;2049192;28;19937;-74
2022/06/19 02:55:25;;;;;;;;;;;;;;;28.36;44.42;98721.28;2046355;28;19940;-74
2022/06/19 02:56:26;;;;;;;;;;;;;;;28.36;44.22;98726.72;2048880;28;20303;-74
2022/06/19 02:57:28;;;;;;;;;;;;;;;28.35;43.77;98722.38;2044035;28;20028;-74
2022/06/19 02:58:30;;;;;;;;;;;;;;;28.37;43.83;98720.19;2041696;28;19930;-75
2022/06/19 02:59:31;;;;;;;;;;;;;;;28.35;43.54;98730.56;2047184;28;20322;-74
2022/06/19 03:00:32;;;;;;;;;;;;;;;28.36;43.92;98724.00;2044751;28;19934;-74
2022/06/19 03:01:33;;;;;;;;;;;;;;;28.36;43.66;98724.00;2046208;28;20371;-75
2022/06/19 03:02:34;;;;;;;;;;;;;;;28.37;45.07;98734.66;2046182;28;20750;-74
2022/06/19 03:03:36;;;;;;;;;;;;;;;28.36;45.17;98735.75;2048292;28;19934;-74
2022/06/19 03:04:40;;;;;;;;;;;;;;;28.36;44.55;98726.72;2048463;28;19953;-74
2022/06/19 03:05:41;;;;;;;;;;;;;;;28.35;45.22;98731.38;2049461;28;20037;-75
2022/06/19 03:06:42;;;;;;;;;;;;;;;28.35;45.15;98730.56;2041427;28;19937;-74
2022/06/19 03:07:43;;;;;;;;;;;;;;;28.34;44.54;98729.72;2044313;28;20013;-74
2022/06/19 03:08:44;;;;;;;;;;;;;;;28.34;44.70;98731.66;2047433;28;20081;-74
2022/06/19 03:09:46;;;;;;;;;;;;;;;28.33;44.33;98735.44;2046929;28;19930;-74
2022/06/19 03:10:46;;;;;;;;;;;;;;;28.33;43.70;98733.53;2048246;28;19941;-74
2022/06/19 03:11:48;;;;;;;;;;;;;;;28.34;43.63;98734.38;2047259;28;20453;-74
2022/06/19 03:12:48;;;;;;;;;;;;;;;28.33;44.84;98736.25;2043695;28;20027;-74
2022/06/19 03:13:52;;;;;;;;;;;;;;;28.32;43.86;98728.34;2045295;28;19969;-74
2022/06/19 03:14:52;;;;;;;;;;;;;;;28.33;42.90;98730.00;2048400;28;20403;-74
2022/06/19 03:15:59;;;;;;;;;;;;;;;28.33;41.84;98736.25;2045161;28;20230;-74
2022/06/19 03:17:00;;;;;;;;;;;;;;;28.34;42.03;98742.56;2045954;28;20439;-75
2022/06/19 03:18:02;;;;;;;;;;;;;;;28.34;41.70;98734.38;2047459;28;20093;-74
2022/06/19 03:19:03;;;;;;;;;;;;;;;28.33;43.24;98733.53;2046743;28;20333;-74
2022/06/19 03:20:05;;;;;;;;;;;;;;;28.35;42.64;98733.28;2044863;28;20232;-74
2022/06/19 03:21:06;;;;;;;;;;;;;;;28.33;43.18;98732.72;2045416;28;20834;-74
2022/06/19 03:22:07;;;;;;;;;;;;;;;28.31;44.13;98727.53;2046520;28;19930;-74
2022/06/19 03:23:09;;;;;;;;;;;;;;;28.30;44.16;98734.06;2044976;28;19937;-74
2022/06/19 03:24:10;;;;;;;;;;;;;;;28.31;42.73;98732.19;2045681;28;19973;-74
2022/06/19 03:25:11;;;;;;;;;;;;;;;28.34;43.11;98737.09;2047318;28;19933;-74
2022/06/19 03:26:13;;;;;;;;;;;;;;;28.31;42.18;98735.72;2042707;28;21287;-74
2022/06/19 03:27:14;;;;;;;;;;;;;;;28.32;42.05;98739.28;2039029;28;19934;-74
2022/06/19 03:28:16;;;;;;;;;;;;;;;28.31;40.70;98733.00;2042097;28;19926;-75
2022/06/19 03:29:18;;;;;;;;;;;;;;;28.30;41.26;98736.78;2046292;28;19937;-74
2022/06/19 03:30:21;;;;;;;;;;;;;;;28.31;42.55;98743.91;2044024;28;19930;-74
2022/06/19 03:31:22;;;;;;;;;;;;;;;28.29;41.01;98733.25;2043666;28;20924;-74
2022/06/19 03:32:24;;;;;;;;;;;;;;;28.31;42.77;98729.47;2027168;28;19937;-74
2022/06/19 03:33:25;;;;;;;;;;;;;;;28.31;40.67;98737.63;2039489;28;19941;-73
2022/06/19 03:34:26;;;;;;;;;;;;;;;28.31;42.11;98740.38;2042783;28;20029;-74
2022/06/19 03:35:27;;;;;;;;;;;;;;;28.30;41.66;98736.78;2041865;28;19926;-74
2022/06/19 03:36:28;;;;;;;;;;;;;;;28.29;41.41;98741.44;2039474;28;19934;-74
2022/06/19 03:37:30;;;;;;;;;;;;;;;28.29;41.50;98741.44;2046292;28;19930;-75
2022/06/19 03:38:31;;;;;;;;;;;;;;;28.29;41.72;98735.97;2036602;28;19929;-74
2022/06/19 03:39:32;;;;;;;;;;;;;;;28.30;41.90;98736.78;2046032;28;20322;-75
2022/06/19 03:40:33;;;;;;;;;;;;;;;28.28;42.42;98733.53;2046246;28;20475;-74
2022/06/19 03:41:34;;;;;;;;;;;;;;;28.28;43.09;98745.25;2047759;28;20446;-74
2022/06/19 03:42:35;;;;;;;;;;;;;;;28.28;42.35;98747.16;2044842;28;20642;-74
2022/06/19 03:43:37;;;;;;;;;;;;;;;28.30;43.00;98750.44;2044649;28;20402;-74
2022/06/19 03:44:39;;;;;;;;;;;;;;;28.29;42.58;98746.06;2045435;28;19983;-74
2022/06/19 03:45:40;;;;;;;;;;;;;;;28.28;42.84;98750.72;2048873;28;19934;-74
2022/06/19 03:46:42;;;;;;;;;;;;;;;28.28;43.15;98756.16;2030854;28;19937;-74
2022/06/19 03:47:43;;;;;;;;;;;;;;;28.29;43.02;98749.63;2041968;28;19934;-73
2022/06/19 03:48:46;;;;;;;;;;;;;;;28.27;43.01;98751.78;2045037;28;20178;-73
2022/06/19 03:49:46;;;;;;;;;;;;;;;28.28;43.82;98753.44;2043582;28;19936;-73
2022/06/19 03:50:48;;;;;;;;;;;;;;;28.28;43.29;98755.34;2049633;28;20251;-74
2022/06/19 03:51:49;;;;;;;;;;;;;;;28.29;44.06;98755.06;2045593;28;19937;-74
2022/06/19 03:52:50;;;;;;;;;;;;;;;28.27;43.82;98750.97;2035178;28;20004;-74
2022/06/19 03:53:52;;;;;;;;;;;;;;;28.29;44.07;98760.53;2040102;28;19934;-74
2022/06/19 03:54:53;;;;;;;;;;;;;;;28.26;43.86;98752.88;2043097;28;19937;-74
2022/06/19 03:55:55;;;;;;;;;;;;;;;28.27;44.01;98754.50;2048631;28;20016;-74
2022/06/19 03:56:56;;;;;;;;;;;;;;;28.28;43.81;98756.16;2046491;28;19934;-74
2022/06/19 03:57:57;;;;;;;;;;;;;;;28.26;42.03;98755.59;2046256;28;19929;-74
2022/06/19 03:58:59;;;;;;;;;;;;;;;28.28;42.42;98752.63;2048317;28;19934;-74
2022/06/19 04:00:02;;;;;;;;;;;;;;;28.26;41.92;98746.59;2043855;28;19937;-74
2022/06/19 04:01:03;;;;;;;;;;;;;;;28.26;42.03;98746.59;2042505;28;21512;-74
2022/06/19 04:02:05;;;;;;;;;;;;;;;28.25;41.66;98744.94;2044162;28;19937;-73
2022/06/19 04:03:06;;;;;;;;;;;;;;;28.24;40.22;98749.59;2044706;28;20445;-75
2022/06/19 04:04:08;;;;;;;;;;;;;;;28.23;38.05;98738.97;2048802;28;19936;-74
2022/06/19 04:05:09;;;;;;;;;;;;;;;28.22;38.66;98742.75;2043012;28;20422;-74
2022/06/19 04:06:12;;;;;;;;;;;;;;;28.21;38.39;98744.66;2045416;28;19934;-74
2022/06/19 04:07:15;;;;;;;;;;;;;;;28.21;37.73;98743.84;2045176;28;20187;-74
2022/06/19 04:08:15;;;;;;;;;;;;;;;28.20;39.47;98753.94;2045947;28;19934;-74
2022/06/19 04:09:18;;;;;;;;;;;;;;;28.18;37.29;98745.19;2043125;28;19936;-74
2022/06/19 04:10:19;;;;;;;;;;;;;;;28.17;38.41;98754.47;2032022;28;20003;-74
2022/06/19 04:11:22;;;;;;;;;;;;;;;28.18;39.11;98750.66;2043032;28;19984;-74
2022/06/19 04:12:22;;;;;;;;;;;;;;;28.19;39.78;98756.91;2043218;28;19930;-74
2022/06/19 04:13:24;;;;;;;;;;;;;;;28.19;41.08;98752.28;2041126;28;20400;-74
2022/06/19 04:14:25;;;;;;;;;;;;;;;28.20;41.00;98750.41;2043795;28;19930;-74
2022/06/19 04:15:28;;;;;;;;;;;;;;;28.20;40.24;98750.41;2045246;28;20168;-74
2022/06/19 04:16:30;;;;;;;;;;;;;;;28.19;40.96;98749.53;2039023;28;19929;-74
2022/06/19 04:17:34;;;;;;;;;;;;;;;28.20;40.40;98753.94;2044890;28;20016;-74
2022/06/19 04:18:35;;;;;;;;;;;;;;;28.20;41.10;98755.84;2040976;28;19937;-74
2022/06/19 04:19:37;;;;;;;;;;;;;;;28.19;40.88;98746.00;2042648;28;19930;-74
2022/06/19 04:20:37;;;;;;;;;;;;;;;28.20;40.56;98750.41;2043647;28;19930;-74
2022/06/19 04:21:41;;;;;;;;;;;;;;;28.21;40.76;98752.84;2046580;28;19930;-75
2022/06/19 04:22:42;;;;;;;;;;;;;;;28.21;41.33;98749.28;2040920;28;20008;-74
2022/06/19 04:23:43;;;;;;;;;;;;;;;28.20;41.23;98756.66;2044266;28;20363;-75
2022/06/19 04:24:44;;;;;;;;;;;;;;;28.19;41.78;98746.81;2044374;28;20307;-73
2022/06/19 04:25:46;;;;;;;;;;;;;;;28.20;41.75;98753.94;2046136;28;19926;-73
2022/06/19 04:26:47;;;;;;;;;;;;;;;28.20;41.61;98753.94;2044749;28;20588;-73
2022/06/19 04:27:48;;;;;;;;;;;;;;;28.20;41.41;98755.84;2041698;28;20194;-74
2022/06/19 04:28:49;;;;;;;;;;;;;;;28.20;41.38;98759.38;2041988;28;20894;-74
2022/06/19 04:29:50;;;;;;;;;;;;;;;28.20;42.19;98747.66;2044224;28;19930;-74
2022/06/19 04:30:53;;;;;;;;;;;;;;;28.19;41.53;98760.47;2042346;28;19933;-74
2022/06/19 04:31:56;;;;;;;;;;;;;;;28.19;42.17;98756.91;2047603;28;20197;-74
2022/06/19 04:32:56;;;;;;;;;;;;;;;28.19;42.49;98757.72;2044558;28;19930;-74
2022/06/19 04:33:58;;;;;;;;;;;;;;;28.19;41.91;98757.72;2048405;28;19971;-74
2022/06/19 04:34:58;;;;;;;;;;;;;;;28.19;42.53;98754.19;2043121;28;20391;-73
2022/06/19 04:36:00;;;;;;;;;;;;;;;28.20;42.57;98759.38;2044349;28;19934;-73
2022/06/19 04:37:02;;;;;;;;;;;;;;;28.21;42.92;98754.75;2043848;28;19942;-73
2022/06/19 04:38:02;;;;;;;;;;;;;;;28.20;43.03;98753.13;2030014;28;20391;-74
2022/06/19 04:39:04;;;;;;;;;;;;;;;28.20;43.27;98759.38;2037308;28;19934;-74
2022/06/19 04:40:05;;;;;;;;;;;;;;;28.21;42.96;98752.84;2044521;28;19930;-73
2022/06/19 04:41:12;;;;;;;;;;;;;;;28.19;42.77;98751.47;2044981;28;20441;-73
2022/06/19 04:42:13;;;;;;;;;;;;;;;28.21;42.74;98758.28;2038415;28;20139;-75
2022/06/19 04:43:15;;;;;;;;;;;;;;;28.20;43.47;98753.94;2047247;28;20413;-74
2022/06/19 04:44:17;;;;;;;;;;;;;;;28.20;43.54;98750.41;2040603;28;20618;-74
2022/06/19 04:45:18;;;;;;;;;;;;;;;28.19;43.28;98757.72;2045501;28;19930;-74
2022/06/19 04:46:21;;;;;;;;;;;;;;;28.19;43.95;98760.47;2045489;28;20178;-74
2022/06/19 04:47:22;;;;;;;;;;;;;;;28.18;43.73;98758.00;2048358;28;19961;-74
2022/06/19 04:48:25;;;;;;;;;;;;;;;28.19;43.95;98763.19;2045328;28;20348;-73
2022/06/19 04:49:25;;;;;;;;;;;;;;;28.19;43.65;98760.47;2044929;28;19930;-74
2022/06/19 04:50:27;;;;;;;;;;;;;;;28.19;43.95;98762.38;2038027;28;20077;-74
2022/06/19 04:51:28;;;;;;;;;;;;;;;28.19;43.72;98754.19;2042826;28;19930;-74
2022/06/19 04:52:29;;;;;;;;;;;;;;;28.18;44.42;98756.09;2044172;28;20395;-74
2022/06/19 04:53:32;;;;;;;;;;;;;;;28.17;44.14;98753.66;2043413;28;19926;-74
2022/06/19 04:54:34;;;;;;;;;;;;;;;28.17;44.53;98757.19;2043583;28;19933;-74
2022/06/19 04:55:34;;;;;;;;;;;;;;;28.17;44.23;98759.09;2044087;28;19961;-74
2022/06/19 04:56:36;;;;;;;;;;;;;;;28.16;44.76;98757.44;2043449;28;20457;-74
2022/06/19 04:57:36;;;;;;;;;;;;;;;28.15;44.52;98758.53;2046155;28;19930;-73
2022/06/19 04:58:39;;;;;;;;;;;;;;;28.16;44.89;98766.44;2041403;28;19929;-74
2022/06/19 04:59:39;;;;;;;;;;;;;;;28.15;44.67;98762.09;2047133;28;19926;-73
2022/06/19 05:00:41;;;;;;;;;;;;;;;28.18;44.31;98771.66;2050089;28;20383;-73
2022/06/19 05:01:44;;;;;;;;;;;;;;;28.19;44.62;98765.09;2048058;28;19941;-73
2022/06/19 05:02:48;;;;;;;;;;;;;;;28.18;44.63;98772.47;2044825;28;20558;-73
2022/06/19 05:03:49;;;;;;;;;;;;;;;28.17;44.45;98768.09;2045246;28;19933;-73
2022/06/19 05:04:51;;;;;;;;;;;;;;;28.17;44.63;98765.38;2040552;28;20517;-73
2022/06/19 05:05:52;;;;;;;;;;;;;;;28.18;44.81;98774.38;2044210;28;20462;-72
2022/06/19 05:06:54;;;;;;;;;;;;;;;28.20;44.29;98772.22;2046793;28;19934;-72
2022/06/19 05:07:54;;;;;;;;;;;;;;;28.17;44.44;98776.28;2046209;28;20067;-72
2022/06/19 05:08:57;;;;;;;;;;;;;;;28.18;45.13;98775.19;2046138;28;19938;-72
2022/06/19 05:09:59;;;;;;;;;;;;;;;28.18;45.07;98772.47;2042880;28;20429;-72
2022/06/19 05:11:00;;;;;;;;;;;;;;;28.17;44.59;98773.56;2046323;28;20050;-71
2022/06/19 05:12:02;;;;;;;;;;;;;;;28.18;44.66;98780.63;2045652;28;19956;-72
2022/06/19 05:13:05;;;;;;;;;;;;;;;28.18;44.24;98782.56;2046088;28;19994;-72
2022/06/19 05:14:07;;;;;;;;;;;;;;;28.16;45.17;98782.81;2044967;28;19926;-74
2022/06/19 05:15:09;;;;;;;;;;;;;;;28.16;45.08;98782.81;2048730;28;19926;-74
2022/06/19 05:16:11;;;;;;;;;;;;;;;28.18;44.88;98783.38;2045855;28;19941;-74
2022/06/19 05:17:13;;;;;;;;;;;;;;;28.19;45.03;98786.91;2038640;28;19945;-74
2022/06/19 05:18:15;;;;;;;;;;;;;;;28.20;45.41;98783.13;2045117;28;20082;-74
2022/06/19 05:19:17;;;;;;;;;;;;;;;28.20;44.87;98788.56;2044549;28;19932;-74
2022/06/19 05:20:18;;;;;;;;;;;;;;;28.20;44.43;98786.66;2039837;28;19934;-74
2022/06/19 05:21:19;;;;;;;;;;;;;;;28.22;43.32;98786.38;2043360;28;20012;-74
2022/06/19 05:22:20;;;;;;;;;;;;;;;28.19;42.84;98782.28;2040498;28;19929;-74
2022/06/19 05:23:22;;;;;;;;;;;;;;;28.18;43.22;98783.38;2045663;28;20018;-74
2022/06/19 05:24:22;;;;;;;;;;;;;;;28.17;43.51;98776.28;2039853;28;19934;-74
2022/06/19 05:25:24;;;;;;;;;;;;;;;28.17;43.86;98779.00;2036907;28;19938;-74